Time;durP1;ratioP1;P1;durP2;ratioP2;P2;SDS_P1;SDS_P2;PMS_P1;PMS_P2;Temp;Humidity;BMP_temperature;BMP_pressure;BME280_temperature;BME280_humidity;BME280_pressure;Samples;Min_cycle;Max_cycle;Signal;HPM_P1;HPM_P2
2022/04/08 00:02:12;;;;;;;5.70;1.43;;;9.60;72.10;;;12.66;53.36;98807.44;5054863;28;20190;-61
2022/04/08 00:04:39;;;;;;;3.77;1.57;;;9.50;71.90;;;12.65;53.63;98815.56;5054970;28;20217;-59
2022/04/08 00:07:08;;;;;;;3.60;1.73;;;9.60;72.00;;;12.64;53.54;98819.25;5054236;28;20225;-61
2022/04/08 00:09:35;;;;;;;4.50;1.50;;;9.60;71.70;;;12.64;53.30;98821.88;5054854;28;20196;-61
2022/04/08 00:12:04;;;;;;;2.47;1.37;;;9.60;71.10;;;12.64;53.38;98832.44;5054774;28;20273;-60
2022/04/08 00:14:32;;;;;;;6.80;1.47;;;9.60;70.80;;;12.65;53.34;98844.59;5054062;28;20233;-60
2022/04/08 00:17:01;;;;;;;3.50;1.23;;;9.60;70.80;;;12.64;52.88;98854.38;5069912;28;20221;-58
2022/04/08 00:19:29;;;;;;;2.93;1.00;;;9.60;70.60;;;12.67;53.37;98858.38;5053427;28;20221;-61
2022/04/08 00:21:56;;;;;;;5.80;1.80;;;9.60;70.80;;;12.68;53.21;98859.97;5052700;28;20202;-59
2022/04/08 00:24:25;;;;;;;3.00;0.90;;;9.60;70.70;;;12.65;53.07;98873.63;5035391;28;20199;-61
2022/04/08 00:26:52;;;;;;;4.10;1.20;;;9.60;70.80;;;12.62;53.32;98877.53;5034686;28;20217;-61
2022/04/08 00:29:19;;;;;;;3.90;1.53;;;9.60;70.80;;;12.61;53.50;98893.63;5034237;28;20193;-59
2022/04/08 00:31:47;;;;;;;4.03;1.33;;;9.60;70.60;;;12.59;53.36;98898.31;5033743;28;20204;-58
2022/04/08 00:34:15;;;;;;;3.27;1.20;;;9.60;70.50;;;12.59;53.05;98909.69;5033756;28;20190;-59
2022/04/08 00:36:42;;;;;;;4.37;1.07;;;9.60;70.40;;;12.60;52.87;98913.13;5031999;28;20345;-60
2022/04/08 00:39:11;;;;;;;4.40;1.70;;;9.60;70.10;;;12.60;52.86;98921.06;5039142;28;20194;-58
2022/04/08 00:41:40;;;;;;;7.30;1.60;;;9.60;70.00;;;12.61;52.84;98922.66;5054495;28;20213;-59
2022/04/08 00:44:09;;;;;;;3.43;0.93;;;9.60;70.10;;;12.60;52.80;98926.34;5054577;28;20725;-59
2022/04/08 00:46:38;;;;;;;5.63;1.40;;;9.60;70.20;;;12.60;53.08;98932.38;5052440;28;20217;-58
2022/04/08 00:49:06;;;;;;;4.13;1.23;;;9.60;70.40;;;12.60;52.81;98940.31;5058390;28;20216;-59
2022/04/08 00:51:34;;;;;;;2.53;1.13;;;9.60;70.30;;;12.61;52.87;98954.31;5058069;28;20202;-60
2022/04/08 00:54:02;;;;;;;4.07;1.17;;;9.60;70.20;;;12.61;52.97;98954.31;5058583;28;20193;-61
2022/04/08 00:56:31;;;;;;;6.83;1.47;;;9.60;70.20;;;12.62;52.82;98966.50;5048218;28;20228;-59
2022/04/08 00:59:00;;;;;;;6.23;1.53;;;9.50;70.10;;;12.60;52.61;98974.63;5038272;28;20186;-61
2022/04/08 01:01:28;;;;;;;5.77;1.57;;;9.50;70.10;;;12.62;52.58;98977.03;5037517;28;20207;-59
2022/04/08 01:03:57;;;;;;;6.70;1.90;;;9.50;70.10;;;12.62;52.64;98987.59;5036412;28;20199;-61
2022/04/08 01:06:26;;;;;;;3.23;1.10;;;9.50;69.90;;;12.61;52.39;99000.00;5035640;28;20198;-59
2022/04/08 01:08:54;;;;;;;4.77;1.40;;;9.50;69.80;;;12.60;52.23;99005.50;5036812;28;20186;-60
2022/04/08 01:11:23;;;;;;;4.50;1.20;;;9.50;69.50;;;12.59;52.66;99011.81;5036931;28;20197;-60
2022/04/08 01:13:51;;;;;;;3.70;1.37;;;9.50;69.50;;;12.58;52.43;99020.75;5038410;28;20190;-58
2022/04/08 01:16:20;;;;;;;5.30;1.47;;;9.50;69.30;;;12.57;52.53;99029.72;5040681;28;20249;-61
2022/04/08 01:18:48;;;;;;;5.03;1.30;;;9.50;69.40;;;12.56;52.51;99034.19;5035590;28;20222;-60
2022/04/08 01:21:16;;;;;;;4.63;1.30;;;9.50;69.20;;;12.56;52.02;99033.38;5047431;28;20198;-60
2022/04/08 01:23:48;;;;;;;3.47;1.53;;;9.50;68.90;;;12.54;52.03;99038.88;5056760;28;20198;-60
2022/04/08 01:26:17;;;;;;;4.90;1.60;;;9.50;68.90;;;12.51;52.17;99041.97;5056426;28;20186;-60
2022/04/08 01:28:45;;;;;;;4.57;1.73;;;9.50;68.40;;;12.50;51.79;99047.50;5055722;28;20211;-59
2022/04/08 01:31:13;;;;;;;4.27;1.37;;;9.50;68.30;;;12.51;51.75;99049.09;5053164;28;20288;-60
2022/04/08 01:33:41;;;;;;;3.97;1.33;;;9.50;68.30;;;12.53;51.80;99047.00;5056375;28;20197;-58
2022/04/08 01:36:08;;;;;;;4.67;1.50;;;9.50;68.00;;;12.55;51.62;99060.81;5056339;28;20225;-60
2022/04/08 01:38:35;;;;;;;3.37;1.37;;;9.50;68.30;;;12.58;51.62;99052.41;5056271;28;20220;-60
2022/04/08 01:41:03;;;;;;;3.90;0.93;;;9.50;68.00;;;12.60;51.49;99060.94;5056086;28;20194;-61
2022/04/08 01:43:31;;;;;;;6.67;1.53;;;9.50;67.80;;;12.62;51.12;99064.16;5056217;28;20685;-59
2022/04/08 01:45:59;;;;;;;5.17;1.43;;;9.50;67.80;;;12.62;51.28;99066.78;5052418;28;20213;-60
2022/04/08 01:48:27;;;;;;;3.13;1.30;;;9.50;67.80;;;12.61;51.20;99071.25;5035834;28;20272;-59
2022/04/08 01:50:55;;;;;;;3.93;1.30;;;9.50;68.10;;;12.59;51.29;99072.50;5043752;28;20201;-58
2022/04/08 01:53:22;;;;;;;3.80;1.10;;;9.50;68.20;;;12.56;51.56;99072.97;5055883;28;20192;-61
2022/04/08 01:55:49;;;;;;;6.17;1.77;;;9.50;68.30;;;12.54;51.82;99086.41;5055818;28;20236;-58
2022/04/08 01:58:16;;;;;;;4.20;1.50;;;9.50;68.50;;;12.52;51.88;99091.09;5055232;28;20694;-61
2022/04/08 02:00:45;;;;;;;4.80;1.17;;;9.50;69.40;;;12.50;51.99;99089.72;5055263;28;20197;-59
2022/04/08 02:03:12;;;;;;;4.50;1.47;;;9.50;68.70;;;12.47;51.92;99095.44;5054047;28;20598;-58
2022/04/08 02:05:40;;;;;;;6.07;1.50;;;9.50;68.90;;;12.44;51.98;99103.81;5056133;28;20189;-58
2022/04/08 02:08:07;;;;;;;3.87;1.03;;;9.50;69.00;;;12.43;52.41;99104.84;5057037;28;20221;-60
2022/04/08 02:10:34;;;;;;;4.73;1.53;;;9.40;69.30;;;12.39;52.21;99108.94;5056540;28;20200;-58
2022/04/08 02:13:02;;;;;;;4.30;1.17;;;9.40;69.10;;;12.37;52.28;99116.28;5055968;28;20197;-60
2022/04/08 02:15:34;;;;;;;4.77;1.17;;;9.40;69.20;;;12.34;52.11;99116.75;5057328;28;20663;-60
2022/04/08 02:18:03;;;;;;;3.53;1.30;;;9.30;69.00;;;12.34;52.03;99120.19;5057033;28;20213;-61
2022/04/08 02:20:32;;;;;;;3.87;1.20;;;9.30;69.20;;;12.34;52.39;99136.00;5056024;28;20198;-60
2022/04/08 02:23:00;;;;;;;5.43;1.50;;;9.30;69.40;;;12.33;52.30;99146.81;5040428;28;20565;-60
2022/04/08 02:25:28;;;;;;;4.40;1.33;;;9.30;70.00;;;12.34;52.70;99153.69;5038194;28;20193;-60
2022/04/08 02:27:56;;;;;;;8.40;1.70;;;9.30;70.10;;;12.32;52.71;99176.84;5035052;28;20216;-60
2022/04/08 02:30:23;;;;;;;4.00;1.33;;;9.20;70.40;;;12.28;53.05;99187.03;5035569;28;20628;-61
2022/04/08 02:32:51;;;;;;;1.80;0.73;;;9.10;70.60;;;12.18;52.88;99198.13;5040384;28;20273;-60
2022/04/08 02:35:20;;;;;;;1.67;0.80;;;9.00;71.10;;;12.11;53.07;99202.69;5036007;28;20197;-59
2022/04/08 02:37:47;;;;;;;3.10;1.10;;;9.00;70.80;;;12.04;53.24;99215.16;5037792;28;20218;-59
2022/04/08 02:40:15;;;;;;;1.67;0.73;;;9.00;70.60;;;11.97;52.99;99224.97;5040766;28;20187;-59
2022/04/08 02:42:42;;;;;;;1.83;1.07;;;8.90;70.00;;;11.89;52.70;99235.81;5039898;28;20198;-61
2022/04/08 02:45:09;;;;;;;2.80;1.00;;;8.80;69.90;;;11.82;52.90;99235.06;5039943;28;20678;-58
2022/04/08 02:47:41;;;;;;;2.57;1.20;;;8.70;70.00;;;11.77;52.38;99239.38;5034804;28;20207;-60
2022/04/08 02:50:09;;;;;;;3.00;1.43;;;8.60;69.20;;;11.70;52.15;99260.53;5036618;28;20702;-61
2022/04/08 02:52:38;;;;;;;4.30;1.37;;;8.60;67.90;;;11.63;51.02;99270.31;5055143;28;20535;-60
2022/04/08 02:55:08;;;;;;;2.30;1.40;;;8.50;67.00;;;11.58;50.98;99275.41;5054974;28;20604;-61
2022/04/08 02:57:44;;;;;;;2.33;1.10;;;8.40;66.90;;;11.49;51.24;99276.72;5055513;28;20824;-60
2022/04/08 03:00:15;;;;;;;2.77;0.97;;;8.40;67.40;;;11.44;51.04;99260.75;5056035;28;20220;-60
2022/04/08 03:02:43;;;;;;;1.03;0.57;;;8.40;67.90;;;11.38;51.27;99249.28;5055895;28;20189;-60
2022/04/08 03:05:11;;;;;;;3.40;1.10;;;8.30;67.90;;;11.39;51.29;99250.88;5056725;28;20220;-61
2022/04/08 03:07:41;;;;;;;4.90;1.27;;;8.30;67.80;;;11.36;51.32;99255.78;5055864;28;20214;-61
2022/04/08 03:10:10;;;;;;;1.87;0.83;;;8.30;67.30;;;11.34;51.54;99247.25;5052743;28;20205;-62
2022/04/08 03:12:38;;;;;;;2.60;0.90;;;8.30;67.50;;;11.31;51.60;99260.88;5054585;28;20200;-58
2022/04/08 03:15:07;;;;;;;2.03;0.83;;;8.30;67.60;;;11.28;51.63;99263.94;5054586;28;20190;-59
2022/04/08 03:17:38;;;;;;;2.00;0.80;;;8.30;67.90;;;11.26;51.44;99258.09;5054514;28;20225;-58
2022/04/08 03:20:07;;;;;;;1.47;0.90;;;8.20;68.10;;;11.26;51.99;99266.00;5055054;28;20277;-61
2022/04/08 03:22:34;;;;;;;0.97;0.80;;;8.20;68.30;;;11.22;51.80;99260.34;5054427;28;20205;-61
2022/04/08 03:25:05;;;;;;;2.83;1.00;;;8.20;68.20;;;11.20;51.49;99261.56;5053306;28;20285;-61
2022/04/08 03:27:32;;;;;;;2.43;0.80;;;8.20;68.10;;;11.19;52.14;99257.34;5043119;28;20218;-60
2022/04/08 03:30:00;;;;;;;2.50;1.03;;;8.20;68.10;;;11.17;51.63;99262.81;5034531;28;20651;-59
2022/04/08 03:32:27;;;;;;;1.70;0.80;;;8.20;68.00;;;11.18;51.56;99268.88;5034073;28;20213;-60
2022/04/08 03:34:57;;;;;;;3.33;1.17;;;8.20;68.00;;;11.18;52.17;99279.41;5034210;28;20551;-59
2022/04/08 03:37:26;;;;;;;3.77;1.37;;;8.20;68.10;;;11.17;51.89;99273.34;5033673;28;20234;-60
2022/04/08 03:39:53;;;;;;;3.10;1.17;;;8.10;67.90;;;11.18;51.49;99287.31;5034168;28;20197;-60
2022/04/08 03:42:22;;;;;;;3.30;1.40;;;8.10;67.70;;;11.15;51.90;99282.50;5033843;28;20182;-58
2022/04/08 03:44:51;;;;;;;10.27;1.70;;;8.10;67.70;;;11.12;51.76;99289.00;5035367;28;20191;-61
2022/04/08 03:47:19;;;;;;;2.63;1.23;;;8.10;67.60;;;11.10;51.27;99287.59;5052670;28;20218;-60
2022/04/08 03:49:47;;;;;;;2.90;1.20;;;8.10;67.40;;;11.07;51.53;99290.63;5054053;28;20661;-60
2022/04/08 03:52:14;;;;;;;2.83;1.13;;;8.10;67.30;;;11.06;51.94;99304.81;5054157;28;20202;-60
2022/04/08 03:54:42;;;;;;;2.77;1.10;;;8.10;67.50;;;11.00;51.29;99292.50;5053820;28;20186;-60
2022/04/08 03:57:10;;;;;;;3.00;1.00;;;8.10;67.60;;;10.97;51.99;99303.47;5053388;28;20765;-61
2022/04/08 03:59:42;;;;;;;3.30;1.13;;;8.00;67.50;;;10.94;51.80;99302.06;5053028;28;20544;-59
2022/04/08 04:02:09;;;;;;;3.73;1.20;;;8.00;67.50;;;10.90;52.01;99298.25;5053371;28;20194;-59
2022/04/08 04:04:37;;;;;;;4.40;1.47;;;8.00;67.50;;;10.86;51.40;99307.59;5053313;28;20534;-58
2022/04/08 04:07:04;;;;;;;3.47;1.17;;;7.90;68.50;;;10.82;52.26;99322.97;5053294;28;20211;-58
2022/04/08 04:09:32;;;;;;;3.73;1.60;;;7.90;67.80;;;10.78;52.02;99316.53;5053591;28;20196;-61
2022/04/08 04:11:59;;;;;;;4.20;1.23;;;7.90;68.20;;;10.75;51.87;99322.22;5053157;28;20243;-60
2022/04/08 04:14:26;;;;;;;2.83;0.90;;;7.80;68.30;;;10.70;52.54;99324.66;5054253;28;20726;-60
2022/04/08 04:16:55;;;;;;;5.23;1.53;;;7.80;68.50;;;10.63;52.90;99334.41;5052107;28;20590;-61
2022/04/08 04:19:22;;;;;;;4.07;1.80;;;7.70;68.50;;;10.54;52.80;99330.41;5053785;28;20201;-58
2022/04/08 04:21:50;;;;;;;3.07;1.37;;;7.70;68.70;;;10.47;52.97;99334.91;5052831;28;20204;-60
2022/04/08 04:24:18;;;;;;;8.43;1.70;;;7.70;68.80;;;10.42;53.13;99344.41;5053157;28;20226;-62
2022/04/08 04:26:45;;;;;;;4.10;1.50;;;7.60;68.80;;;10.36;53.52;99348.69;5052866;28;20213;-59
2022/04/08 04:29:13;;;;;;;4.70;1.50;;;7.60;69.10;;;10.31;53.62;99351.13;5053080;28;20277;-61
2022/04/08 04:31:40;;;;;;;4.20;1.70;;;7.50;69.10;;;10.28;53.70;99350.72;5053391;28;20194;-60
2022/04/08 04:34:09;;;;;;;3.87;1.90;;;7.50;69.30;;;10.27;53.53;99365.69;5051935;28;20202;-61
2022/04/08 04:36:36;;;;;;;4.83;1.63;;;7.50;69.50;;;10.29;53.37;99362.88;5052463;28;20225;-57
2022/04/08 04:39:03;;;;;;;3.50;1.57;;;7.50;69.60;;;10.28;53.72;99362.06;5054235;28;20186;-60
2022/04/08 04:41:32;;;;;;;9.60;1.80;;;7.50;69.70;;;10.28;53.58;99367.31;5052971;28;20193;-60
2022/04/08 04:43:59;;;;;;;8.17;1.80;;;7.50;70.50;;;10.25;53.68;99370.34;5053658;28;20194;-60
2022/04/08 04:46:27;;;;;;;6.57;2.03;;;7.40;69.40;;;10.25;53.71;99373.00;5053809;28;20276;-61
2022/04/08 04:48:54;;;;;;;6.90;1.70;;;7.50;69.40;;;10.24;53.67;99371.38;5052849;28;20205;-60
2022/04/08 04:51:23;;;;;;;2.80;1.57;;;7.40;69.20;;;10.24;53.42;99371.38;5051814;28;20648;-59
2022/04/08 04:53:50;;;;;;;4.97;1.90;;;7.50;69.30;;;10.25;53.50;99388.75;5057736;28;20649;-60
2022/04/08 04:56:18;;;;;;;5.07;1.43;;;7.40;69.60;;;10.24;53.60;99387.16;5055372;28;20209;-59
2022/04/08 04:58:46;;;;;;;6.87;1.90;;;7.50;69.20;;;10.28;53.15;99390.16;5058182;28;20216;-61
2022/04/08 05:01:13;;;;;;;7.07;1.67;;;7.50;69.30;;;10.29;52.97;99392.63;5057885;28;20210;-61
2022/04/08 05:03:41;;;;;;;4.30;1.50;;;7.40;69.00;;;10.26;53.10;99395.66;5057155;28;20201;-61
2022/04/08 05:06:09;;;;;;;5.27;1.60;;;7.40;68.80;;;10.24;53.17;99397.69;5056513;28;20186;-61
2022/04/08 05:08:37;;;;;;;7.03;1.47;;;7.40;68.80;;;10.22;52.73;99407.59;5040995;28;20206;-58
2022/04/08 05:11:04;;;;;;;5.00;1.43;;;7.40;68.50;;;10.17;53.00;99408.19;5036413;28;20194;-57
2022/04/08 05:13:32;;;;;;;4.20;1.47;;;7.40;68.30;;;10.19;52.75;99415.88;5035281;28;20194;-59
2022/04/08 05:16:00;;;;;;;2.33;1.30;;;7.40;68.80;;;10.23;52.32;99424.97;5038318;28;20607;-61
2022/04/08 05:18:28;;;;;;;4.73;1.70;;;7.40;67.80;;;10.30;52.71;99423.13;5039411;28;20237;-61
2022/04/08 05:20:55;;;;;;;6.03;1.50;;;7.40;68.00;;;10.39;52.47;99432.44;5045897;28;20236;-60
2022/04/08 05:23:28;;;;;;;3.37;1.30;;;7.50;67.90;;;10.48;52.02;99428.59;5059401;28;20205;-60
2022/04/08 05:25:57;;;;;;;4.37;1.33;;;7.50;67.60;;;10.55;51.54;99437.28;5055609;28;20194;-59
2022/04/08 05:28:25;;;;;;;3.40;1.40;;;7.60;67.30;;;10.62;51.38;99443.31;5054600;28;20293;-58
2022/04/08 05:30:53;;;;;;;1.50;1.00;;;7.60;66.80;;;10.66;51.48;99444.50;5052543;28;20194;-61
2022/04/08 05:33:21;;;;;;;3.37;1.50;;;7.60;66.60;;;10.69;51.40;99441.47;5054667;28;20368;-60
2022/04/08 05:35:48;;;;;;;2.90;1.00;;;7.60;66.70;;;10.72;50.78;99438.41;5057526;28;20202;-60
2022/04/08 05:38:16;;;;;;;2.00;1.33;;;7.70;66.40;;;10.72;51.30;99451.56;5059186;28;20217;-61
2022/04/08 05:40:43;;;;;;;1.50;0.97;;;7.70;66.10;;;10.71;50.63;99457.88;5057084;28;20217;-59
2022/04/08 05:43:12;;;;;;;2.27;1.23;;;7.70;65.60;;;10.66;50.12;99457.66;5058581;28;20186;-60
2022/04/08 05:45:39;;;;;;;3.87;1.00;;;7.70;65.30;;;10.60;50.26;99461.09;5059997;28;20194;-61
2022/04/08 05:48:07;;;;;;;4.33;1.33;;;7.70;65.00;;;10.51;50.08;99464.97;5060523;28;20222;-60
2022/04/08 05:50:35;;;;;;;1.73;0.80;;;7.70;64.90;;;10.45;50.42;99473.69;5059635;28;20646;-60
2022/04/08 05:53:03;;;;;;;1.90;1.10;;;7.70;65.00;;;10.42;51.09;99468.84;5059901;28;20257;-60
2022/04/08 05:55:51;;;;;;;3.43;0.97;;;7.60;65.30;;;10.44;50.60;99473.88;5058157;28;20213;-59
2022/04/08 05:58:19;;;;;;;5.60;1.30;;;7.60;65.60;;;10.46;50.64;99487.66;5057000;28;20221;-60
2022/04/08 06:00:47;;;;;;;5.10;1.57;;;7.60;65.70;;;10.50;50.88;99499.38;5056968;28;20210;-60
2022/04/08 06:03:15;;;;;;;2.53;1.40;;;7.60;65.80;;;10.54;50.64;99493.50;5057390;28;20198;-60
2022/04/08 06:05:42;;;;;;;5.70;1.43;;;7.60;66.10;;;10.57;51.38;99485.22;5057777;28;20194;-58
2022/04/08 06:08:10;;;;;;;4.30;1.37;;;7.60;66.70;;;10.58;50.87;99492.09;5058077;28;20202;-61
2022/04/08 06:10:37;;;;;;;2.20;1.30;;;7.60;67.00;;;10.54;51.79;99490.06;5058526;28;20225;-60
2022/04/08 06:13:05;;;;;;;3.00;1.67;;;7.60;67.20;;;10.46;51.72;99479.78;5058615;28;20190;-57
2022/04/08 06:15:35;;;;;;;1.83;1.30;;;7.60;67.10;;;10.38;51.83;99483.44;5047609;28;20262;-60
2022/04/08 06:18:04;;;;;;;2.40;0.90;;;7.50;67.50;;;10.34;51.95;99482.19;5038772;28;20222;-59
2022/04/08 06:20:31;;;;;;;2.97;1.10;;;7.50;67.50;;;10.33;52.19;99477.97;5042281;28;20275;-60
2022/04/08 06:22:59;;;;;;;3.23;1.20;;;7.50;67.90;;;10.34;52.38;99479.56;5059733;28;20209;-60
2022/04/08 06:25:26;;;;;;;1.40;1.07;;;7.50;68.20;;;10.34;52.74;99487.44;5060106;28;20194;-60
2022/04/08 06:27:57;;;;;;;3.97;1.10;;;7.50;68.20;;;10.34;52.48;99486.66;5051880;28;20210;-59
2022/04/08 06:30:25;;;;;;;4.07;1.07;;;7.40;68.60;;;10.41;53.01;99482.22;5039706;28;20190;-59
2022/04/08 06:32:54;;;;;;;4.83;1.57;;;7.50;69.20;;;10.51;53.29;99485.22;5039044;28;20203;-59
2022/04/08 06:35:22;;;;;;;1.43;1.17;;;7.50;69.30;;;10.57;52.69;99492.28;5040120;28;20647;-60
2022/04/08 06:37:50;;;;;;;2.17;0.90;;;7.50;69.10;;;10.62;52.67;99493.31;5038709;28;20297;-59
2022/04/08 06:40:17;;;;;;;2.73;1.27;;;7.60;69.30;;;10.73;52.70;99494.47;5039249;28;20197;-58
2022/04/08 06:42:44;;;;;;;3.00;1.30;;;7.70;69.30;;;10.87;52.59;99499.50;5049921;28;20197;-60
2022/04/08 06:45:12;;;;;;;2.87;1.50;;;7.80;69.10;;;10.97;52.06;99508.78;5059939;28;20217;-59
2022/04/08 06:47:46;;;;;;;4.87;1.57;;;7.80;68.80;;;10.98;51.74;99510.41;5059203;28;20216;-59
2022/04/08 06:50:16;;;;;;;2.67;1.87;;;7.90;68.40;;;11.01;52.24;99507.34;5058013;28;20220;-60
2022/04/08 06:52:43;;;;;;;7.30;2.00;;;8.00;68.30;;;11.06;52.13;99518.06;5056883;28;20273;-57
2022/04/08 06:55:11;;;;;;;4.43;2.00;;;8.00;68.20;;;11.13;52.02;99513.59;5056696;28;20186;-59
2022/04/08 06:57:39;;;;;;;2.87;1.43;;;8.10;67.90;;;11.20;51.46;99515.19;5055342;28;20213;-60
2022/04/08 07:00:10;;;;;;;2.10;1.13;;;8.10;67.70;;;11.28;51.75;99517.59;5035713;28;20229;-60
2022/04/08 07:02:38;;;;;;;3.10;1.80;;;8.20;67.90;;;11.36;51.19;99511.28;5036072;28;20199;-61
2022/04/08 07:05:07;;;;;;;2.07;1.27;;;8.20;67.80;;;11.45;51.53;99516.13;5035816;28;20195;-60
2022/04/08 07:07:38;;;;;;;1.73;1.00;;;8.30;67.80;;;11.54;51.01;99506.13;5035411;28;20207;-59
2022/04/08 07:10:07;;;;;;;3.27;1.40;;;8.30;67.00;;;11.55;50.31;99508.53;5035744;28;20197;-60
2022/04/08 07:12:34;;;;;;;2.27;1.60;;;8.40;66.50;;;11.53;50.38;99509.75;5035124;28;20201;-60
2022/04/08 07:15:03;;;;;;;6.20;1.97;;;8.40;65.90;;;11.51;50.38;99503.91;5036043;28;20548;-60
2022/04/08 07:17:33;;;;;;;3.30;1.43;;;8.50;65.90;;;11.62;50.04;99508.53;5034426;28;20252;-58
2022/04/08 07:20:17;;;;;;;3.33;1.23;;;8.50;66.20;;;11.83;50.64;99504.78;5037762;28;20594;-61
2022/04/08 07:22:47;;;;;;;3.00;1.57;;;8.60;66.50;;;12.07;50.00;99518.00;5054748;28;20524;-61
2022/04/08 07:25:16;;;;;;;3.77;1.63;;;8.70;66.70;;;12.31;49.71;99512.94;5054668;28;20265;-59
2022/04/08 07:27:45;;;;;;;4.40;1.20;;;8.90;66.10;;;12.65;49.10;99505.28;5054332;28;20289;-58
2022/04/08 07:30:14;;;;;;;3.47;1.10;;;9.10;65.20;;;12.88;48.13;99516.03;5054089;28;20183;-58
2022/04/08 07:32:41;;;;;;;3.33;1.30;;;9.30;64.50;;;13.05;47.49;99518.09;5041715;28;20369;-60
2022/04/08 07:35:10;;;;;;;3.30;1.23;;;9.50;63.10;;;13.25;47.15;99516.06;5034688;28;20277;-59
2022/04/08 07:37:38;;;;;;;3.23;1.33;;;9.70;63.20;;;13.53;46.57;99525.03;5034297;28;20240;-59
2022/04/08 07:40:11;;;;;;;3.53;1.10;;;9.90;62.30;;;13.67;45.67;99530.16;5034453;28;20234;-59
2022/04/08 07:42:40;;;;;;;3.37;1.00;;;10.10;59.80;;;13.66;45.43;99534.66;5034342;28;20210;-60
2022/04/08 07:45:09;;;;;;;1.80;1.20;;;10.20;58.80;;;13.64;45.01;99530.59;5034563;28;20725;-62
2022/04/08 07:47:37;;;;;;;3.43;1.30;;;10.30;58.70;;;13.72;45.39;99527.63;5036213;28;20206;-61
2022/04/08 07:50:09;;;;;;;3.33;1.43;;;10.40;58.90;;;13.71;44.67;99541.91;5044213;28;20205;-61
2022/04/08 07:52:37;;;;;;;2.50;1.30;;;10.40;58.10;;;13.56;44.51;99545.75;5042335;28;20213;-59
2022/04/08 07:55:08;;;;;;;2.40;1.17;;;10.30;57.70;;;13.52;44.67;99531.38;5038677;28;20507;-61
2022/04/08 07:57:44;;;;;;;3.37;1.33;;;10.30;57.70;;;13.77;44.42;99527.75;5034018;28;20242;-58
2022/04/08 08:00:14;;;;;;;1.83;1.30;;;10.30;57.80;;;13.85;43.90;99530.09;5039682;28;20204;-58
2022/04/08 08:02:43;;;;;;;2.20;1.20;;;10.40;57.50;;;13.92;44.09;99528.97;5042480;28;20194;-60
2022/04/08 08:05:11;;;;;;;6.53;1.80;;;10.50;57.50;;;14.43;43.80;99524.97;5050095;28;20193;-60
2022/04/08 08:07:50;;;;;;;3.63;1.63;;;10.70;57.80;;;14.67;42.53;99537.97;5051716;28;20230;-59
2022/04/08 08:10:21;;;;;;;1.93;1.47;;;10.90;56.80;;;14.70;42.19;99520.81;5032406;28;20190;-61
2022/04/08 08:12:51;;;;;;;3.27;1.33;;;11.00;55.70;;;14.89;41.69;99536.34;5037378;28;20577;-61
2022/04/08 08:15:19;;;;;;;3.33;1.13;;;11.20;55.50;;;15.17;41.08;99524.19;5033715;28;20268;-61
2022/04/08 08:17:48;;;;;;;2.40;1.23;;;11.40;55.00;;;15.69;40.82;99525.00;5037381;28;20325;-60
2022/04/08 08:20:18;;;;;;;2.67;1.17;;;11.70;55.60;;;16.33;40.19;99531.69;5035608;28;20645;-61
2022/04/08 08:22:46;;;;;;;3.40;1.10;;;12.10;54.70;;;16.50;39.37;99537.78;5038413;28;20209;-62
2022/04/08 08:25:15;;;;;;;3.53;1.53;;;12.40;53.70;;;16.41;38.83;99534.72;5033639;28;20190;-58
2022/04/08 08:27:47;;;;;;;2.40;1.40;;;12.50;52.40;;;16.25;39.04;99527.56;5035642;28;20362;-62
2022/04/08 08:30:17;;;;;;;4.00;1.50;;;12.60;52.10;;;16.07;38.91;99538.41;5041212;28;20279;-59
2022/04/08 08:32:47;;;;;;;2.33;1.20;;;12.60;51.30;;;15.81;38.84;99539.81;5045240;28;20226;-61
2022/04/08 08:35:20;;;;;;;3.53;1.37;;;12.40;51.00;;;15.51;39.16;99537.41;5036167;28;20194;-62
2022/04/08 08:37:49;;;;;;;4.07;1.77;;;12.30;51.70;;;15.27;39.65;99548.28;5054505;28;20241;-62
2022/04/08 08:40:19;;;;;;;2.80;1.33;;;12.10;51.70;;;15.07;39.93;99547.88;5047606;28;20202;-62
2022/04/08 08:42:48;;;;;;;2.07;1.37;;;11.90;51.90;;;14.90;40.17;99563.66;5046733;28;20198;-61
2022/04/08 08:45:17;;;;;;;4.03;1.80;;;11.70;52.40;;;14.97;40.52;99543.16;5049738;28;20614;-60
2022/04/08 08:47:47;;;;;;;5.83;1.30;;;11.60;53.80;;;15.09;40.44;99556.38;5044079;28;20218;-62
2022/04/08 08:50:17;;;;;;;3.77;1.70;;;11.60;53.30;;;15.14;40.23;99540.59;5040255;28;20198;-62
2022/04/08 08:52:49;;;;;;;5.93;1.70;;;11.50;52.80;;;15.07;39.98;99543.34;5035466;28;20268;-62
2022/04/08 08:55:18;;;;;;;2.60;1.63;;;11.50;52.90;;;14.99;40.08;99542.91;5039678;28;20280;-62
2022/04/08 08:57:47;;;;;;;2.07;1.13;;;11.60;52.70;;;14.89;40.49;99546.97;5033008;28;20352;-62
2022/04/08 09:00:18;;;;;;;1.70;1.60;;;11.60;53.00;;;14.80;40.39;99542.22;5032869;28;20216;-61
2022/04/08 09:02:49;;;;;;;2.83;1.50;;;11.50;52.80;;;14.70;40.70;99534.88;5033880;28;20210;-63
2022/04/08 09:05:20;;;;;;;4.60;1.43;;;11.50;52.90;;;14.91;40.73;99538.75;5040276;28;20750;-63
2022/04/08 09:07:56;;;;;;;2.10;1.33;;;11.50;53.20;;;15.35;40.00;99545.28;5031805;28;20242;-62
2022/04/08 09:10:28;;;;;;;3.07;1.40;;;11.70;53.00;;;15.56;39.03;99547.31;5037634;28;20628;-63
2022/04/08 09:12:58;;;;;;;4.03;1.47;;;11.80;51.80;;;15.57;38.27;99538.28;5038313;28;20202;-62
2022/04/08 09:15:26;;;;;;;2.80;1.40;;;11.90;51.40;;;15.46;38.85;99555.06;5052576;28;20215;-62
2022/04/08 09:18:05;;;;;;;2.60;1.37;;;12.00;51.00;;;15.39;38.91;99541.09;5044108;28;20331;-62
2022/04/08 09:20:38;;;;;;;5.93;1.60;;;12.00;51.40;;;15.80;39.30;99532.91;5034036;28;20277;-61
2022/04/08 09:23:08;;;;;;;4.53;1.80;;;12.10;52.00;;;16.15;38.63;99541.47;5040854;28;20222;-63
2022/04/08 09:25:37;;;;;;;2.17;1.53;;;12.30;51.90;;;16.28;38.49;99540.38;5039125;28;20259;-64
2022/04/08 09:28:08;;;;;;;3.47;1.80;;;12.50;52.00;;;16.80;38.35;99532.97;5039887;28;20242;-60
2022/04/08 09:30:36;;;;;;;3.80;1.93;;;12.70;52.00;;;16.81;37.70;99529.25;5035836;28;20198;-61
2022/04/08 09:33:16;;;;;;;3.70;1.40;;;13.00;51.00;;;16.62;37.54;99536.69;5035203;28;20202;-63
2022/04/08 09:35:43;;;;;;;4.67;1.80;;;13.10;50.10;;;16.40;37.80;99533.13;5038517;28;20194;-59
2022/04/08 09:38:11;;;;;;;4.40;1.77;;;13.10;50.00;;;16.22;37.97;99531.50;5047410;28;20306;-62
2022/04/08 09:40:44;;;;;;;3.70;1.70;;;13.00;49.40;;;16.12;38.40;99531.34;5043346;28;20320;-62
2022/04/08 09:43:14;;;;;;;4.40;2.00;;;13.00;50.10;;;16.03;38.36;99524.00;5038478;28;20711;-64
2022/04/08 09:45:43;;;;;;;6.67;2.10;;;12.90;50.00;;;16.47;38.26;99522.34;5038947;28;20192;-61
2022/04/08 09:48:11;;;;;;;5.90;2.33;;;12.90;50.60;;;17.91;37.17;99521.00;5052563;28;20268;-62
2022/04/08 09:50:40;;;;;;;5.07;1.57;;;13.20;51.70;;;19.35;33.98;99518.78;5041600;28;20273;-62
2022/04/08 09:53:09;;;;;;;8.23;1.63;;;13.80;50.20;;;20.05;31.79;99515.50;5045389;28;20680;-60
2022/04/08 09:55:42;;;;;;;3.97;1.37;;;14.40;47.00;;;20.46;31.34;99513.66;5048937;28;20201;-61
2022/04/08 09:58:14;;;;;;;2.47;1.30;;;14.90;45.80;;;20.87;30.81;99507.16;5049166;28;20233;-61
2022/04/08 10:00:45;;;;;;;3.37;1.30;;;15.50;44.50;;;20.61;30.81;99500.25;5039485;28;20655;-62
2022/04/08 10:03:12;;;;;;;4.33;2.00;;;15.80;43.20;;;20.09;30.88;99498.66;5044615;28;20203;-63
2022/04/08 10:05:41;;;;;;;2.93;1.80;;;15.90;42.60;;;19.57;31.73;99501.53;5051408;28;20667;-61
2022/04/08 10:08:09;;;;;;;1.30;1.13;;;15.80;42.20;;;19.09;31.75;99501.06;5047820;28;20288;-64
2022/04/08 10:10:48;;;;;;;3.03;1.13;;;15.60;41.50;;;18.66;32.62;99497.63;5037395;28;20201;-62
2022/04/08 10:13:31;;;;;;;3.13;1.23;;;15.40;42.00;;;18.31;32.71;99497.38;5067918;28;20211;-60
2022/04/08 10:16:14;;;;;;;3.10;1.33;;;15.20;42.30;;;18.36;32.88;99500.06;5053098;28;20737;-62
2022/04/08 10:18:44;;;;;;;2.23;1.40;;;15.00;42.60;;;18.39;32.14;99494.25;5041881;28;20324;-62
2022/04/08 10:21:12;;;;;;;4.30;1.67;;;14.80;41.90;;;18.49;32.40;99489.00;5040780;28;20297;-62
2022/04/08 10:23:47;;;;;;;3.50;1.33;;;14.90;43.20;;;19.04;32.06;99493.03;5046215;28;20202;-63
2022/04/08 10:26:21;;;;;;;1.90;1.30;;;14.90;43.70;;;19.43;31.29;99483.59;5034380;28;20201;-61
2022/04/08 10:28:52;;;;;;;4.33;1.67;;;15.10;42.40;;;19.68;31.33;99475.66;5038927;28;20274;-63
2022/04/08 10:31:25;;;;;;;3.30;1.30;;;15.20;42.80;;;19.97;30.41;99486.63;5038208;28;20193;-60
2022/04/08 10:33:56;;;;;;;3.27;1.50;;;15.40;42.20;;;19.99;30.75;99477.25;5046400;28;20234;-62